createdAt,value
2022-10-30T00:01:22.879Z,77.42
2022-10-30T00:03:51.911Z,76.38
2022-10-30T00:06:19.008Z,76.32
2022-10-30T00:08:46.142Z,76.02
2022-10-30T00:11:14.150Z,76.14
2022-10-30T00:13:47.180Z,76.15
2022-10-30T00:16:14.364Z,75.68
2022-10-30T00:18:44.036Z,75.61
2022-10-30T00:21:16.454Z,76.13
2022-10-30T00:23:53.533Z,76.07
2022-10-30T00:26:22.588Z,75.98
2022-10-30T00:28:57.449Z,75.44
2022-10-30T00:31:24.638Z,75.69
2022-10-30T00:33:53.809Z,76.30
2022-10-30T00:36:31.823Z,76.17
2022-10-30T00:38:58.896Z,76.49
2022-10-30T00:41:26.216Z,76.18
2022-10-30T00:43:53.724Z,76.01
2022-10-30T00:46:38.436Z,76.39
2022-10-30T00:49:16.912Z,76.44
2022-10-30T00:51:52.574Z,76.54
2022-10-30T00:54:20.467Z,76.50
2022-10-30T00:56:50.358Z,76.26
2022-10-30T00:59:26.614Z,75.69
2022-10-30T01:01:54.699Z,76.75
2022-10-30T01:04:28.997Z,76.26
2022-10-30T01:06:58.742Z,76.73
2022-10-30T01:09:26.132Z,77.34
2022-10-30T01:11:53.342Z,77.11
2022-10-30T01:14:21.632Z,76.28
2022-10-30T01:17:17.074Z,76.60
2022-10-30T01:20:19.236Z,76.34
2022-10-30T01:22:58.886Z,76.71
2022-10-30T01:26:00.995Z,76.72
2022-10-30T01:28:54.860Z,76.58
2022-10-30T01:32:18.333Z,77.10
2022-10-30T01:35:05.079Z,77.47
2022-10-30T01:38:25.694Z,77.05
2022-10-30T01:40:53.087Z,77.04
2022-10-30T01:43:21.043Z,76.96
2022-10-30T01:46:22.953Z,77.27
2022-10-30T01:49:14.426Z,77.92
2022-10-30T01:52:22.315Z,77.61
2022-10-30T01:55:24.490Z,77.50
2022-10-30T01:58:00.178Z,77.88
2022-10-30T02:00:28.549Z,77.21
2022-10-30T02:02:56.201Z,78.68
2022-10-30T02:05:33.492Z,79.25
2022-10-30T02:08:02.210Z,78.80
2022-10-30T02:10:31.728Z,79.20
2022-10-30T02:12:58.931Z,79.98
2022-10-30T02:15:26.150Z,79.65
2022-10-30T02:17:54.837Z,80.08
2022-10-30T02:20:24.586Z,80.60
2022-10-30T02:22:54.586Z,81.32
2022-10-30T02:25:27.955Z,82.11
2022-10-30T02:27:55.173Z,82.16
2022-10-30T02:30:22.457Z,82.10
2022-10-30T02:32:52.545Z,82.70
2022-10-30T02:35:19.643Z,82.72
2022-10-30T02:37:49.870Z,83.29
2022-10-30T02:40:17.218Z,82.28
2022-10-30T02:42:44.618Z,83.70
2022-10-30T02:45:12.023Z,82.25
2022-10-30T02:47:39.242Z,82.71
2022-10-30T02:50:09.585Z,82.11
2022-10-30T02:52:36.693Z,81.98
2022-10-30T02:55:04.235Z,82.98
2022-10-30T02:57:33.881Z,83.07
2022-10-30T03:00:01.603Z,82.83
2022-10-30T03:02:28.717Z,82.33
2022-10-30T03:04:58.004Z,82.48
2022-10-30T03:07:25.170Z,82.37
2022-10-30T03:09:55.708Z,82.32
2022-10-30T03:12:25.354Z,81.25
2022-10-30T03:14:54.756Z,83.22
2022-10-30T03:17:24.451Z,82.44
2022-10-30T03:19:51.788Z,84.52
2022-10-30T03:22:19.052Z,86.80
2022-10-30T03:24:46.206Z,85.92
2022-10-30T03:27:13.413Z,84.85
2022-10-30T03:29:40.731Z,84.05
2022-10-30T03:32:11.849Z,82.98
2022-10-30T03:34:39.220Z,82.81
2022-10-30T03:37:09.047Z,82.43
2022-10-30T03:39:36.262Z,83.34
2022-10-30T03:42:06.066Z,82.96
2022-10-30T03:44:33.523Z,82.46
2022-10-30T03:47:00.737Z,83.02
2022-10-30T03:49:28.066Z,83.17
2022-10-30T03:51:57.516Z,83.03
2022-10-30T03:54:24.655Z,82.47
2022-10-30T03:56:54.297Z,82.16
2022-10-30T03:59:21.555Z,82.55
2022-10-30T04:01:49.021Z,82.82
2022-10-30T04:04:16.384Z,82.11
2022-10-30T04:06:47.672Z,82.22
2022-10-30T04:09:18.582Z,82.33
2022-10-30T04:11:46.033Z,82.72
2022-10-30T04:14:13.147Z,82.24
2022-10-30T04:16:40.228Z,81.53
2022-10-30T04:19:07.563Z,81.30
2022-10-30T04:21:34.729Z,81.59
2022-10-30T04:24:02.090Z,82.03
2022-10-30T04:26:38.748Z,81.95
2022-10-30T04:29:06.295Z,81.38
2022-10-30T04:31:33.344Z,81.49
2022-10-30T04:34:00.477Z,81.59
2022-10-30T04:36:34.012Z,81.59
2022-10-30T04:39:04.218Z,81.91
2022-10-30T04:41:31.561Z,81.15
2022-10-30T04:43:58.646Z,81.02
2022-10-30T04:46:25.685Z,80.34
2022-10-30T04:48:53.256Z,81.97
2022-10-30T04:51:20.479Z,82.64
2022-10-30T04:53:50.056Z,81.59
2022-10-30T04:56:17.141Z,81.25
2022-10-30T04:58:44.201Z,80.76
2022-10-30T05:01:14.051Z,80.72
2022-10-30T05:03:41.241Z,81.00
2022-10-30T05:06:22.061Z,80.33
2022-10-30T05:08:50.184Z,81.24
2022-10-30T05:11:18.327Z,81.07
2022-10-30T05:13:47.710Z,80.69
2022-10-30T05:16:14.835Z,81.55
2022-10-30T05:18:44.332Z,81.82
2022-10-30T05:21:11.448Z,81.37
2022-10-30T05:23:38.640Z,81.49
2022-10-30T05:26:08.297Z,81.54
2022-10-30T05:28:35.361Z,81.33
2022-10-30T05:31:02.629Z,80.82
2022-10-30T05:33:32.159Z,80.77
2022-10-30T05:35:59.388Z,80.31
2022-10-30T05:38:26.520Z,80.13
2022-10-30T05:40:53.638Z,80.33
2022-10-30T05:43:20.734Z,80.34
2022-10-30T05:45:50.130Z,80.10
2022-10-30T05:48:17.536Z,79.86
2022-10-30T05:50:44.864Z,79.80
2022-10-30T05:53:11.965Z,79.84
2022-10-30T05:55:39.069Z,79.87
2022-10-30T05:58:07.256Z,80.67
2022-10-30T06:00:36.971Z,79.94
2022-10-30T06:03:07.477Z,79.32
2022-10-30T06:05:39.624Z,78.88
2022-10-30T06:08:07.973Z,79.04
2022-10-30T06:10:37.985Z,78.97
2022-10-30T06:13:07.559Z,79.63
2022-10-30T06:15:34.840Z,79.54
2022-10-30T06:18:02.234Z,79.07
2022-10-30T06:20:31.141Z,78.90
2022-10-30T06:23:08.441Z,79.62
2022-10-30T06:25:41.123Z,79.25
2022-10-30T06:28:11.693Z,78.96
2022-10-30T06:30:38.943Z,79.45
2022-10-30T06:33:06.777Z,78.78
2022-10-30T06:35:33.930Z,78.54
2022-10-30T06:38:01.174Z,79.79
2022-10-30T06:40:30.295Z,79.60
2022-10-30T06:42:58.199Z,79.14
2022-10-30T06:45:25.768Z,79.95
2022-10-30T06:47:53.042Z,80.07
2022-10-30T06:50:22.290Z,78.76
2022-10-30T06:52:49.692Z,78.88
2022-10-30T06:55:17.544Z,76.69
2022-10-30T06:57:44.784Z,73.53
2022-10-30T07:00:13.278Z,73.09
2022-10-30T07:03:25.413Z,71.54
2022-10-30T07:05:52.917Z,70.72
2022-10-30T07:08:20.155Z,72.45
2022-10-30T07:10:49.942Z,70.91
2022-10-30T07:13:17.922Z,70.29
2022-10-30T07:15:45.172Z,71.87
2022-10-30T07:18:14.585Z,72.41
2022-10-30T07:20:41.703Z,72.23
2022-10-30T07:23:09.733Z,72.12
2022-10-30T07:25:40.929Z,71.33
2022-10-30T07:28:08.352Z,71.23
2022-10-30T07:30:35.810Z,70.79
2022-10-30T07:33:08.065Z,70.37
2022-10-30T07:35:39.050Z,68.34
2022-10-30T07:38:14.360Z,67.81
2022-10-30T07:40:41.486Z,66.41
2022-10-30T07:43:13.451Z,65.84
2022-10-30T07:45:40.663Z,66.26
2022-10-30T07:48:07.708Z,69.12
2022-10-30T07:50:37.241Z,71.78
2022-10-30T07:53:04.329Z,70.70
2022-10-30T07:55:31.476Z,72.34
2022-10-30T07:57:58.969Z,71.41
2022-10-30T08:00:26.345Z,70.18
2022-10-30T08:02:57.576Z,70.65
2022-10-30T08:05:29.057Z,70.84
2022-10-30T08:07:57.602Z,71.73
2022-10-30T08:10:25.159Z,70.00
2022-10-30T08:12:52.273Z,69.77
2022-10-30T08:15:19.436Z,72.39
2022-10-30T08:17:48.989Z,71.88
2022-10-30T08:20:19.607Z,72.22
2022-10-30T08:22:52.923Z,71.69
2022-10-30T08:25:22.441Z,71.86
2022-10-30T08:27:55.549Z,72.10
2022-10-30T08:30:25.174Z,74.12
2022-10-30T08:32:52.289Z,74.68
2022-10-30T08:35:20.273Z,72.33
2022-10-30T08:37:47.886Z,71.07
2022-10-30T08:40:15.091Z,70.15
2022-10-30T08:42:42.193Z,70.59
2022-10-30T08:45:09.725Z,72.84
2022-10-30T08:47:36.775Z,71.92
2022-10-30T08:50:04.145Z,71.45
2022-10-30T08:52:31.187Z,73.08
2022-10-30T08:54:58.253Z,71.06
2022-10-30T08:57:25.602Z,73.88
2022-10-30T08:59:55.077Z,73.51
2022-10-30T09:02:22.248Z,73.78
2022-10-30T09:04:51.595Z,73.83
2022-10-30T09:07:18.667Z,74.14
2022-10-30T09:09:48.280Z,74.95
2022-10-30T09:12:16.294Z,76.11
2022-10-30T09:14:43.370Z,74.74
2022-10-30T09:17:10.648Z,73.36
2022-10-30T09:19:38.169Z,71.76
2022-10-30T09:22:05.501Z,70.29
2022-10-30T09:24:32.526Z,69.96
2022-10-30T09:26:59.589Z,69.78
2022-10-30T09:29:26.714Z,68.33
2022-10-30T09:31:53.744Z,65.42
2022-10-30T09:34:20.856Z,63.19
2022-10-30T09:36:48.858Z,63.10
2022-10-30T09:39:16.420Z,63.04
2022-10-30T09:42:07.545Z,62.31
2022-10-30T09:45:15.171Z,61.69
2022-10-30T09:48:19.535Z,62.94
2022-10-30T09:51:29.472Z,61.74
2022-10-30T09:54:24.087Z,63.15
2022-10-30T09:57:04.883Z,61.59
2022-10-30T10:00:15.406Z,60.53
2022-10-30T10:03:27.623Z,62.38
2022-10-30T10:05:59.470Z,60.79
2022-10-30T10:08:46.569Z,59.10
2022-10-30T10:11:44.271Z,59.14
2022-10-30T10:14:18.923Z,59.20
2022-10-30T10:16:52.863Z,58.61
2022-10-30T10:19:30.846Z,56.92
2022-10-30T10:22:04.194Z,57.74
2022-10-30T10:24:38.912Z,57.74
2022-10-30T10:27:13.137Z,58.53
2022-10-30T10:29:53.926Z,59.65
2022-10-30T10:33:04.671Z,61.69
2022-10-30T10:35:42.205Z,62.48
2022-10-30T10:38:53.118Z,60.18
2022-10-30T10:41:51.057Z,60.36
2022-10-30T10:44:41.377Z,59.94
2022-10-30T10:47:35.611Z,60.12
2022-10-30T10:50:29.728Z,59.47
2022-10-30T10:53:20.686Z,60.67
2022-10-30T10:55:52.866Z,61.40
2022-10-30T10:58:56.869Z,63.72
2022-10-30T11:01:39.026Z,62.61
2022-10-30T11:04:30.143Z,61.32
2022-10-30T11:07:02.779Z,63.68
2022-10-30T11:09:29.872Z,64.34
2022-10-30T11:11:59.464Z,65.26
2022-10-30T11:14:32.004Z,66.40
2022-10-30T11:17:29.131Z,67.19
2022-10-30T11:20:30.272Z,65.29
2022-10-30T11:22:57.810Z,68.60
2022-10-30T11:25:33.534Z,68.53
2022-10-30T11:28:04.538Z,69.13
2022-10-30T11:30:35.119Z,71.21
2022-10-30T11:33:23.365Z,70.38
2022-10-30T11:35:50.519Z,68.85
2022-10-30T11:38:21.421Z,68.29
2022-10-30T11:40:52.888Z,70.52
2022-10-30T11:43:24.405Z,69.42
2022-10-30T11:45:52.409Z,70.91
2022-10-30T11:48:34.009Z,71.21
2022-10-30T11:51:03.283Z,70.07
2022-10-30T11:53:47.830Z,72.67
2022-10-30T11:56:23.030Z,72.03
2022-10-30T11:59:12.883Z,72.20
2022-10-30T12:01:57.685Z,70.14
2022-10-30T12:04:28.172Z,70.47
2022-10-30T12:07:14.034Z,72.80
2022-10-30T12:09:47.215Z,74.52
2022-10-30T12:12:39.764Z,76.59
2022-10-30T12:15:15.867Z,74.36
2022-10-30T12:18:02.416Z,73.48
2022-10-30T12:20:30.147Z,73.90
2022-10-30T12:23:09.624Z,72.86
2022-10-30T12:25:37.645Z,73.68
2022-10-30T12:28:15.590Z,74.15
2022-10-30T12:31:15.162Z,73.18
2022-10-30T12:34:03.851Z,73.71
2022-10-30T12:36:40.368Z,72.69
2022-10-30T12:39:34.303Z,72.89
2022-10-30T12:42:18.040Z,73.56
2022-10-30T12:45:06.885Z,75.10
2022-10-30T12:48:02.674Z,74.26
2022-10-30T12:50:59.183Z,73.99
2022-10-30T12:53:34.459Z,75.45
2022-10-30T12:56:30.265Z,74.40
2022-10-30T12:59:23.057Z,72.98
2022-10-30T13:02:15.982Z,71.15
2022-10-30T13:04:52.197Z,73.63
2022-10-30T13:07:50.416Z,73.91
2022-10-30T13:10:58.319Z,74.35
2022-10-30T13:13:35.675Z,77.00
2022-10-30T13:16:08.685Z,76.40
2022-10-30T13:18:38.419Z,75.84
2022-10-30T13:21:11.415Z,73.74
2022-10-30T13:24:11.736Z,77.01
2022-10-30T13:26:48.510Z,75.47
2022-10-30T13:29:27.906Z,75.95
2022-10-30T13:32:17.371Z,75.67
2022-10-30T13:35:37.954Z,76.06
2022-10-30T13:38:19.940Z,75.87
2022-10-30T13:41:42.429Z,73.81
2022-10-30T13:44:32.189Z,72.86
2022-10-30T13:47:27.167Z,73.05
2022-10-30T13:50:15.655Z,74.59
2022-10-30T13:52:50.542Z,74.16
2022-10-30T13:55:31.423Z,77.16
2022-10-30T13:58:24.789Z,75.67
2022-10-30T14:01:30.403Z,74.68
2022-10-30T14:04:12.960Z,76.83
2022-10-30T14:06:51.551Z,75.93
2022-10-30T14:09:44.569Z,75.98
2022-10-30T14:12:48.964Z,75.42
2022-10-30T14:15:43.959Z,75.36
2022-10-30T14:18:14.001Z,75.91
2022-10-30T14:20:46.460Z,75.22
2022-10-30T14:23:36.262Z,76.98
2022-10-30T14:26:10.674Z,77.11
2022-10-30T14:28:47.438Z,79.06
2022-10-30T14:31:18.031Z,77.01
2022-10-30T14:33:52.315Z,78.19
2022-10-30T14:36:34.617Z,77.92
2022-10-30T14:39:13.421Z,80.00
2022-10-30T14:42:02.387Z,78.76
2022-10-30T14:44:52.201Z,76.80
2022-10-30T14:48:11.494Z,77.60
2022-10-30T14:51:25.211Z,77.91
2022-10-30T14:54:06.606Z,76.80
2022-10-30T14:56:51.102Z,77.45
2022-10-30T14:59:18.120Z,77.82
2022-10-30T15:02:04.082Z,76.00
2022-10-30T15:04:57.246Z,75.76
2022-10-30T15:07:50.019Z,75.17
2022-10-30T15:10:34.128Z,75.92
2022-10-30T15:13:10.624Z,75.97
2022-10-30T15:15:38.092Z,75.29
2022-10-30T15:18:15.946Z,76.19
2022-10-30T15:20:43.368Z,75.36
2022-10-30T15:23:19.423Z,75.57
2022-10-30T15:25:56.947Z,75.38
2022-10-30T15:28:30.515Z,75.24
2022-10-30T15:31:18.229Z,75.50
2022-10-30T15:33:47.653Z,75.67
2022-10-30T15:36:28.485Z,75.70
2022-10-30T15:39:14.998Z,76.45
2022-10-30T15:42:04.256Z,76.24
2022-10-30T15:44:37.855Z,76.05
2022-10-30T15:47:12.638Z,76.50
2022-10-30T15:49:54.453Z,77.49
2022-10-30T15:52:32.530Z,77.49
2022-10-30T15:55:10.112Z,77.83
2022-10-30T15:58:07.138Z,78.27
2022-10-30T16:00:37.640Z,78.55
2022-10-30T16:03:13.443Z,78.79
2022-10-30T16:05:43.119Z,79.09
2022-10-30T16:08:19.565Z,79.36
2022-10-30T16:10:47.625Z,79.26
2022-10-30T16:13:21.980Z,78.71
2022-10-30T16:15:50.419Z,78.49
2022-10-30T16:18:28.393Z,78.96
2022-10-30T16:21:02.543Z,78.84
2022-10-30T16:23:36.354Z,79.19
2022-10-30T16:26:03.636Z,81.13
2022-10-30T16:28:37.960Z,80.51
2022-10-30T16:31:15.389Z,79.49
2022-10-30T16:33:44.728Z,79.08
2022-10-30T16:36:18.394Z,79.44
2022-10-30T16:38:49.315Z,79.70
2022-10-30T16:41:22.700Z,80.44
2022-10-30T16:44:30.289Z,79.91
2022-10-30T16:47:16.904Z,79.69
2022-10-30T16:49:52.461Z,80.64
2022-10-30T16:52:27.510Z,79.98
2022-10-30T16:55:20.185Z,79.69
2022-10-30T16:57:57.375Z,80.06
2022-10-30T17:00:36.541Z,80.02
2022-10-30T17:03:11.787Z,80.44
2022-10-30T17:05:44.149Z,79.90
2022-10-30T17:08:17.152Z,80.12
2022-10-30T17:11:05.277Z,80.56
2022-10-30T17:13:38.249Z,80.93
2022-10-30T17:16:27.139Z,80.42
2022-10-30T17:18:58.096Z,81.93
2022-10-30T17:21:42.217Z,81.82
2022-10-30T17:24:29.648Z,81.72
2022-10-30T17:27:00.234Z,81.61
2022-10-30T17:29:42.407Z,82.02
2022-10-30T17:32:21.031Z,82.94
2022-10-30T17:35:00.145Z,82.40
2022-10-30T17:37:28.126Z,82.31
2022-10-30T17:39:55.227Z,81.80
2022-10-30T17:42:22.427Z,81.54
2022-10-30T17:44:49.701Z,81.03
2022-10-30T17:47:19.840Z,81.21
2022-10-30T17:49:49.615Z,81.40
2022-10-30T17:52:22.981Z,82.00
2022-10-30T17:54:50.299Z,81.99
2022-10-30T17:57:17.441Z,81.16
2022-10-30T17:59:44.666Z,80.99
2022-10-30T18:02:23.252Z,80.42
2022-10-30T18:04:54.968Z,80.99
2022-10-30T18:07:24.577Z,80.27
2022-10-30T18:09:51.609Z,80.37
2022-10-30T18:12:19.283Z,80.36
2022-10-30T18:14:46.432Z,80.58
2022-10-30T18:17:18.363Z,80.98
2022-10-30T18:19:45.422Z,80.04
2022-10-30T18:22:12.533Z,80.05
2022-10-30T18:24:42.878Z,80.30
2022-10-30T18:27:09.911Z,79.59
2022-10-30T18:29:36.980Z,79.29
2022-10-30T18:32:09.276Z,79.53
2022-10-30T18:34:36.713Z,80.67
2022-10-30T18:37:03.816Z,80.78
2022-10-30T18:39:33.358Z,81.86
2022-10-30T18:42:00.918Z,80.66
2022-10-30T18:44:27.960Z,79.98
2022-10-30T18:47:00.090Z,80.11
2022-10-30T18:49:32.060Z,79.76
2022-10-30T18:51:59.325Z,79.18
2022-10-30T18:54:27.063Z,79.77
2022-10-30T18:56:54.041Z,79.02
2022-10-30T18:59:21.140Z,80.92
2022-10-30T19:01:48.383Z,80.25
2022-10-30T19:04:20.835Z,80.90
2022-10-30T19:06:51.287Z,80.28
2022-10-30T19:09:20.564Z,81.16
2022-10-30T19:11:48.240Z,81.84
2022-10-30T19:14:18.436Z,80.92
2022-10-30T19:16:47.559Z,80.34
2022-10-30T19:19:15.101Z,80.36
2022-10-30T19:21:42.253Z,79.66
2022-10-30T19:24:20.282Z,79.28
2022-10-30T19:26:47.320Z,79.01
2022-10-30T19:29:14.634Z,78.61
2022-10-30T19:31:42.175Z,78.57
2022-10-30T19:34:09.264Z,78.17
2022-10-30T19:36:38.376Z,78.67
2022-10-30T19:39:16.738Z,78.95
2022-10-30T19:41:46.706Z,79.01
2022-10-30T19:44:13.792Z,79.25
2022-10-30T19:46:40.796Z,79.22
2022-10-30T19:49:22.943Z,79.19
2022-10-30T19:51:50.018Z,78.45
2022-10-30T19:54:17.151Z,78.43
2022-10-30T19:56:44.453Z,78.28
2022-10-30T19:59:14.973Z,77.91
2022-10-30T20:01:43.845Z,78.17
2022-10-30T20:04:14.132Z,78.71
2022-10-30T20:06:41.225Z,78.47
2022-10-30T20:09:15.251Z,77.85
2022-10-30T20:11:44.779Z,78.69
2022-10-30T20:14:12.030Z,78.86
2022-10-30T20:16:39.227Z,78.48
2022-10-30T20:19:41.645Z,78.17
2022-10-30T20:22:11.321Z,78.31
2022-10-30T20:24:38.429Z,78.26
2022-10-30T20:27:06.404Z,79.69
2022-10-30T20:29:36.941Z,79.98
2022-10-30T20:32:09.794Z,81.13
2022-10-30T20:34:36.866Z,81.28
2022-10-30T20:37:04.153Z,81.96
2022-10-30T20:39:33.760Z,82.33
2022-10-30T20:42:01.022Z,82.00
2022-10-30T20:44:28.112Z,82.40
2022-10-30T20:46:55.429Z,82.24
2022-10-30T20:49:25.083Z,83.19
2022-10-30T20:51:52.477Z,83.71
2022-10-30T20:54:19.701Z,83.53
2022-10-30T20:56:49.164Z,85.04
2022-10-30T20:59:16.416Z,85.63
2022-10-30T21:01:46.184Z,85.24
2022-10-30T21:04:13.867Z,84.57
2022-10-30T21:06:43.472Z,84.22
2022-10-30T21:09:10.828Z,85.71
2022-10-30T21:11:38.058Z,84.75
2022-10-30T21:14:05.396Z,85.58
2022-10-30T21:16:32.667Z,85.71
2022-10-30T21:19:00.027Z,86.41
2022-10-30T21:21:27.117Z,86.36
2022-10-30T21:23:55.418Z,85.75
2022-10-30T21:26:24.927Z,86.31
2022-10-30T21:28:52.231Z,85.59
2022-10-30T21:31:19.446Z,86.86
2022-10-30T21:33:47.315Z,86.44
2022-10-30T21:36:17.414Z,87.37
2022-10-30T21:38:47.209Z,87.51
2022-10-30T21:41:21.780Z,88.59
2022-10-30T21:43:51.707Z,86.83
2022-10-30T21:46:20.202Z,85.92
2022-10-30T21:48:47.427Z,85.60
2022-10-30T21:51:23.520Z,86.25
2022-10-30T21:53:51.479Z,86.56
2022-10-30T21:56:25.057Z,86.84
2022-10-30T21:58:53.101Z,86.30
2022-10-30T22:01:29.862Z,86.51
2022-10-30T22:04:02.955Z,87.01
2022-10-30T22:06:30.886Z,86.92
2022-10-30T22:09:01.163Z,87.64
2022-10-30T22:11:29.355Z,87.98
2022-10-30T22:14:02.395Z,88.57
2022-10-30T22:16:32.441Z,88.12
2022-10-30T22:19:00.709Z,87.99
2022-10-30T22:21:28.269Z,87.90
2022-10-30T22:23:55.665Z,87.55
2022-10-30T22:26:23.762Z,87.02
2022-10-30T22:28:58.308Z,87.77
2022-10-30T22:31:28.656Z,86.75
2022-10-30T22:33:56.313Z,86.02
2022-10-30T22:36:26.557Z,88.71
2022-10-30T22:38:58.387Z,87.77
2022-10-30T22:41:27.745Z,88.57
2022-10-30T22:43:57.452Z,87.90
2022-10-30T22:46:30.133Z,87.28
2022-10-30T22:49:00.192Z,86.52
2022-10-30T22:51:29.864Z,87.00
2022-10-30T22:54:01.392Z,86.55
2022-10-30T22:56:32.306Z,85.69
2022-10-30T22:59:03.505Z,86.30
2022-10-30T23:01:33.512Z,86.70
2022-10-30T23:04:02.777Z,87.01
2022-10-30T23:06:32.355Z,86.15
2022-10-30T23:09:02.615Z,85.42
2022-10-30T23:11:30.664Z,86.27
2022-10-30T23:13:57.869Z,85.81
2022-10-30T23:16:26.509Z,86.35
2022-10-30T23:18:59.118Z,86.53
2022-10-30T23:21:30.312Z,84.82
2022-10-30T23:23:58.070Z,85.71
2022-10-30T23:26:31.569Z,85.42
2022-10-30T23:29:00.492Z,85.73
2022-10-30T23:31:28.961Z,86.95
2022-10-30T23:34:00.296Z,87.08
2022-10-30T23:36:27.995Z,90.43
2022-10-30T23:38:58.161Z,89.91
2022-10-30T23:41:28.696Z,88.43
2022-10-30T23:43:58.292Z,87.50
2022-10-30T23:46:26.395Z,87.32
2022-10-30T23:48:53.682Z,87.90
2022-10-30T23:51:21.752Z,89.10
2022-10-30T23:53:49.255Z,89.74
2022-10-30T23:56:17.754Z,88.95
2022-10-30T23:58:49.832Z,88.90
